Airfield :







YOU CAN JOIN US ON...

 
LOGIN :

Register | Disclaimer

   EN    FR    IT 

 









Legend :    VFR   Marginal VFR   IFR   Intensive IFR   Very Intensive IFR
Visi :
Ceiling :
>= 8 km
>= 3000ft
5 to 8 km
1000 to 3000 ft
1500m to 5 km
500 to 1000 ft
800 to 1500m
200 to 500 ft
< 800m
< 200 ft
Symbols :   Thunderstorms  Fog  Heavy snow  Heavy precipitations  Wind > 20 kt






- Airport Elevation : 172 ft
- IATA code : YYY


CYYY - Mont Joli

CURRENT METAR :
  • 080600Z 19010KT 4SM -SN DRSN OVC030 M05/M08 A2978 RMK SC8 SLP090

EXPIRED METARs :
  • 080511Z 18015KT 3SM -SN DRSN OVC033 M05/M09 A2980 RMK SC8 PRESFR SLP096
  • 080500Z 18014G20KT 2 1/2SM -SN BLSN OVC030 M05/M09 A2981 RMK SC8 PRESFR SLP100
  • 080421Z 18011G20KT 2 1/2SM -SN BLSN OVC030 M06/M09 A2984 RMK SC8 SLP111
  • 080400Z 17016G24KT 140V210 1 1/2SM -SN BLSN VV022 M06/M09 A2985 RMK SN8 SLP115
  • 080351Z 17014G24KT 2SM -SN BLSN VV020 M05/M10 A2985 RMK SN8 SLP115
  • 080300Z 18011G29KT 15SM -SN DRSN OVC065 M05/M11 A2988 RMK SC8 SLP125

TAF AMD TAF CYYY
Valid from the 08 at 04:00 until the 08 at 14:00 UTC


080405Z 0804/0814 17015G25KT 1 1/2SM -SN BLSN OVC015
TEMPO 0804/0807 6SM -SN SCT015 OVC025
PROB40 0804/0807 3/4SM -SN VV008
FM080700 18012G22KT P6SM OVC030
TEMPO 0807/0812 P6SM -SN OVC020
FM081200 24015G25KT P6SM BKN030
TEMPO 0812/0814 SCT030
BECMG 0812/0814 27018G28KT RMK NXT FCST BY 080800Z
CZUL FIR / North America



MET'MAP, your aeronautical weather chart ! - Copyright ORBIFLY December 2007 - Disclaimer

ORBIFLY MET'MAP TEAM :

Programming & Development : Alexandra Zaïnal
Original concept : Baudouin d'Aumeries
Technical & hardware support : Manuel Goepfert
Assistance : Marc-Olivier Méhu




SOURCES & CREDITS :

   NOAA